createdAt,value
2019-02-09T00:22:27.216Z,11.65
2019-02-09T00:28:35.850Z,11.15
2019-02-09T00:31:05.126Z,10.60
2019-02-09T00:33:33.817Z,11.45
2019-02-09T00:36:02.536Z,12.37
2019-02-09T00:38:31.227Z,10.95
2019-02-09T00:40:59.880Z,11.35
2019-02-09T00:43:28.602Z,11.35
2019-02-09T00:45:57.269Z,11.08
2019-02-09T00:48:25.932Z,10.40
2019-02-09T00:50:54.622Z,11.33
2019-02-09T00:53:23.352Z,10.75
2019-02-09T00:55:51.976Z,10.78
2019-02-09T00:58:20.662Z,10.85
2019-02-09T01:00:49.344Z,11.28
2019-02-09T01:03:18.335Z,11.55
2019-02-09T01:05:47.215Z,10.98
2019-02-09T01:08:35.014Z,11.03
2019-02-09T01:11:04.370Z,11.22
2019-02-09T01:13:33.050Z,10.95
2019-02-09T01:16:01.747Z,11.57
2019-02-09T01:18:30.509Z,10.63
2019-02-09T01:20:59.220Z,10.43
2019-02-09T01:23:27.916Z,10.95
2019-02-09T01:25:56.584Z,10.78
2019-02-09T01:28:25.293Z,10.98
2019-02-09T01:30:53.987Z,10.75
2019-02-09T01:33:22.686Z,12.03
2019-02-09T01:35:51.375Z,12.20
2019-02-09T01:38:20.046Z,11.15
2019-02-09T01:40:48.763Z,12.10
2019-02-09T01:43:17.492Z,11.88
2019-02-09T01:45:46.207Z,11.53
2019-02-09T01:48:14.876Z,11.73
2019-02-09T01:50:43.589Z,11.12
2019-02-09T01:53:12.140Z,11.50
2019-02-09T01:55:40.817Z,11.83
2019-02-09T01:58:09.539Z,11.22
2019-02-09T02:00:38.261Z,12.25
2019-02-09T02:03:06.915Z,11.70
2019-02-09T02:05:35.615Z,11.65
2019-02-09T02:08:04.691Z,11.75
2019-02-09T02:10:34.258Z,12.40
2019-02-09T02:13:03.254Z,12.65
2019-02-09T02:15:32.084Z,12.80
2019-02-09T02:18:00.877Z,12.88
2019-02-09T02:20:29.912Z,12.70
2019-02-09T02:22:58.574Z,13.20
2019-02-09T02:25:27.459Z,13.15
2019-02-09T02:27:56.171Z,13.70
2019-02-09T02:30:25.828Z,13.08
2019-02-09T02:32:54.570Z,14.18
2019-02-09T02:35:23.261Z,13.20
2019-02-09T02:37:51.950Z,14.30
2019-02-09T02:40:20.879Z,12.50
2019-02-09T02:42:49.547Z,13.55
2019-02-09T02:45:18.288Z,13.43
2019-02-09T02:47:47.059Z,14.47
2019-02-09T02:50:16.946Z,13.60
2019-02-09T02:52:45.585Z,13.55
2019-02-09T02:55:15.360Z,13.10
2019-02-09T02:57:44.034Z,14.58
2019-02-09T03:00:17.186Z,14.35
2019-02-09T03:02:46.062Z,14.80
2019-02-09T03:05:15.919Z,14.15
2019-02-09T03:07:44.607Z,14.87
2019-02-09T03:10:13.579Z,13.95
2019-02-09T03:12:42.193Z,14.00
2019-02-09T03:15:12.334Z,14.58
2019-02-09T03:17:41.019Z,13.88
2019-02-09T03:20:10.797Z,13.80
2019-02-09T03:22:39.482Z,13.60
2019-02-09T03:25:09.007Z,14.75
2019-02-09T03:27:37.668Z,14.47
2019-02-09T03:30:07.163Z,13.60
2019-02-09T03:32:35.843Z,13.72
2019-02-09T03:35:05.306Z,15.68
2019-02-09T03:37:33.930Z,14.95
2019-02-09T03:40:02.789Z,14.95
2019-02-09T03:42:31.472Z,13.68
2019-02-09T03:45:00.186Z,14.38
2019-02-09T03:47:28.950Z,14.45
2019-02-09T03:49:57.609Z,13.78
2019-02-09T03:52:26.335Z,13.68
2019-02-09T03:54:55.095Z,14.33
2019-02-09T03:57:23.760Z,13.55
2019-02-09T03:59:52.438Z,13.68
2019-02-09T04:02:21.103Z,13.10
2019-02-09T04:04:49.772Z,14.73
2019-02-09T04:07:18.499Z,14.43
2019-02-09T04:09:47.262Z,13.72
2019-02-09T04:12:15.860Z,14.68
2019-02-09T04:14:44.554Z,14.87
2019-02-09T04:17:13.299Z,12.82
2019-02-09T04:19:41.881Z,13.20
2019-02-09T04:22:10.521Z,13.18
2019-02-09T04:24:39.203Z,13.30
2019-02-09T04:27:07.878Z,13.05
2019-02-09T04:29:36.585Z,12.63
2019-02-09T04:32:05.369Z,12.88
2019-02-09T04:34:34.051Z,12.20
2019-02-09T04:37:02.738Z,12.65
2019-02-09T04:39:31.476Z,12.20
2019-02-09T04:42:00.149Z,13.15
2019-02-09T04:44:28.889Z,12.58
2019-02-09T04:46:57.550Z,12.53
2019-02-09T04:49:26.248Z,12.45
2019-02-09T04:51:54.940Z,12.45
2019-02-09T04:54:23.678Z,11.45
2019-02-09T04:56:52.410Z,11.90
2019-02-09T04:59:21.094Z,12.93
2019-02-09T05:01:49.822Z,12.78
2019-02-09T05:04:18.562Z,11.80
2019-02-09T05:06:47.289Z,12.25
2019-02-09T05:09:15.954Z,10.98
2019-02-09T05:11:44.679Z,11.78
2019-02-09T05:14:13.347Z,11.73
2019-02-09T05:16:42.053Z,11.93
2019-02-09T05:19:10.785Z,12.90
2019-02-09T05:21:39.495Z,12.00
2019-02-09T05:24:08.265Z,12.13
2019-02-09T05:26:36.949Z,11.50
2019-02-09T05:29:05.643Z,12.03
2019-02-09T05:31:34.341Z,11.10
2019-02-09T05:34:03.013Z,12.23
2019-02-09T05:36:31.719Z,12.13
2019-02-09T05:39:00.501Z,12.60
2019-02-09T05:41:29.177Z,12.50
2019-02-09T05:43:57.848Z,12.53
2019-02-09T05:46:26.585Z,11.97
2019-02-09T05:48:55.340Z,12.47
2019-02-09T05:51:24.101Z,11.80
2019-02-09T05:53:52.812Z,11.13
2019-02-09T05:56:21.475Z,11.40
2019-02-09T05:58:50.223Z,11.60
2019-02-09T06:01:19.059Z,11.47
2019-02-09T06:03:47.741Z,11.13
2019-02-09T06:06:16.459Z,11.77
2019-02-09T06:08:45.167Z,11.57
2019-02-09T06:11:13.818Z,11.33
2019-02-09T06:13:42.524Z,10.57
2019-02-09T06:16:11.178Z,11.10
2019-02-09T06:18:39.805Z,11.50
2019-02-09T06:21:08.440Z,10.70
2019-02-09T06:23:37.115Z,10.77
2019-02-09T06:26:05.777Z,11.37
2019-02-09T06:28:34.444Z,10.90
2019-02-09T06:31:03.150Z,10.63
2019-02-09T06:33:31.852Z,11.50
2019-02-09T06:36:00.510Z,10.47
2019-02-09T06:38:29.251Z,9.77
2019-02-09T06:40:57.974Z,10.93
2019-02-09T06:43:26.740Z,10.33
2019-02-09T06:45:55.430Z,10.53
2019-02-09T06:48:25.202Z,11.10
2019-02-09T06:50:54.703Z,11.27
2019-02-09T06:53:23.397Z,10.93
2019-02-09T06:55:52.085Z,11.20
2019-02-09T06:58:20.765Z,11.10
2019-02-09T07:00:49.484Z,11.00
2019-02-09T07:03:18.229Z,9.60
2019-02-09T07:05:46.873Z,9.17
2019-02-09T07:08:16.754Z,9.67
2019-02-09T07:10:45.610Z,8.97
2019-02-09T07:13:14.285Z,9.57
2019-02-09T07:15:43.044Z,9.03
2019-02-09T07:18:11.780Z,10.03
2019-02-09T07:20:40.516Z,9.73
2019-02-09T07:23:09.181Z,9.53
2019-02-09T07:25:37.871Z,9.83
2019-02-09T07:28:06.612Z,9.87
2019-02-09T07:30:35.438Z,9.60
2019-02-09T07:33:05.323Z,9.53
2019-02-09T07:35:34.104Z,10.07
2019-02-09T07:38:02.779Z,9.97
2019-02-09T07:40:31.518Z,11.10
2019-02-09T07:43:00.216Z,11.13
2019-02-09T07:45:28.934Z,10.75
2019-02-09T07:47:57.605Z,10.20
2019-02-09T07:50:26.432Z,10.00
2019-02-09T07:52:55.038Z,10.23
2019-02-09T07:55:23.781Z,10.03
2019-02-09T07:57:52.750Z,12.17
2019-02-09T08:00:27.939Z,11.30
2019-02-09T08:02:56.673Z,11.63
2019-02-09T08:05:26.401Z,10.43
2019-02-09T08:07:55.227Z,10.27
2019-02-09T08:10:25.156Z,10.10
2019-02-09T08:12:54.249Z,9.80
2019-02-09T08:15:23.681Z,11.30
2019-02-09T08:17:52.379Z,10.00
2019-02-09T08:20:21.940Z,12.70
2019-02-09T08:22:50.785Z,13.90
2019-02-09T08:25:20.468Z,13.93
2019-02-09T08:27:49.189Z,15.03
2019-02-09T08:30:19.326Z,12.13
2019-02-09T08:32:48.059Z,10.00
2019-02-09T08:35:16.761Z,9.97
2019-02-09T08:37:45.417Z,9.93
2019-02-09T08:40:14.315Z,9.20
2019-02-09T08:42:42.991Z,8.10
2019-02-09T08:45:15.712Z,10.10
2019-02-09T08:47:44.536Z,9.43
2019-02-09T08:50:15.170Z,8.73
2019-02-09T08:52:43.827Z,9.20
2019-02-09T08:55:13.226Z,8.53
2019-02-09T08:57:41.975Z,5.90
2019-02-09T09:00:11.635Z,4.77
2019-02-09T09:02:40.311Z,4.93
2019-02-09T09:05:10.057Z,3.77
2019-02-09T09:07:38.808Z,3.77
2019-02-09T09:10:08.010Z,4.07
2019-02-09T09:12:36.571Z,5.13
2019-02-09T09:15:06.273Z,4.43
2019-02-09T09:20:14.738Z,3.63
2019-02-09T09:22:43.489Z,2.80
2019-02-09T09:25:12.362Z,2.80
2019-02-09T09:27:41.107Z,2.20
2019-02-09T09:30:12.028Z,2.50
2019-02-09T09:32:40.711Z,2.20
2019-02-09T09:35:09.424Z,2.40
2019-02-09T09:37:38.346Z,2.87
2019-02-09T09:40:08.418Z,2.50
2019-02-09T09:42:37.145Z,2.60
2019-02-09T09:45:06.183Z,2.23
2019-02-09T09:47:43.944Z,2.37
2019-02-09T09:50:13.280Z,2.10
2019-02-09T09:52:41.947Z,2.30
2019-02-09T09:55:10.941Z,2.00
2019-02-09T09:57:39.605Z,2.20
2019-02-09T10:00:09.260Z,2.33
2019-02-09T10:02:38.049Z,2.20
2019-02-09T10:05:07.188Z,2.30
2019-02-09T10:07:36.221Z,1.93
2019-02-09T10:10:05.862Z,2.23
2019-02-09T10:12:34.532Z,2.20
2019-02-09T10:15:03.237Z,2.17
2019-02-09T10:17:31.868Z,2.53
2019-02-09T10:20:00.539Z,2.20
2019-02-09T10:22:29.296Z,2.30
2019-02-09T10:24:57.952Z,2.80
2019-02-09T10:27:26.635Z,2.10
2019-02-09T10:29:55.356Z,2.27
2019-02-09T10:32:24.149Z,2.70
2019-02-09T10:34:52.990Z,2.50
2019-02-09T10:37:21.637Z,2.30
2019-02-09T10:39:50.461Z,2.90
2019-02-09T10:42:19.163Z,2.27
2019-02-09T10:44:47.845Z,2.00
2019-02-09T10:47:16.739Z,1.80
2019-02-09T10:49:45.508Z,2.37
2019-02-09T10:52:14.166Z,2.20
2019-02-09T10:54:42.843Z,2.33
2019-02-09T10:57:11.506Z,2.23
2019-02-09T10:59:40.269Z,2.00
2019-02-09T11:02:09.008Z,1.97
2019-02-09T11:04:37.720Z,2.07
2019-02-09T11:07:06.388Z,1.83
2019-02-09T11:09:35.080Z,2.03
2019-02-09T11:12:03.778Z,2.00
2019-02-09T11:14:32.478Z,2.30
2019-02-09T11:17:01.700Z,1.93
2019-02-09T11:19:30.317Z,1.90
2019-02-09T11:21:59.080Z,2.07
2019-02-09T11:24:27.804Z,1.93
2019-02-09T11:26:56.489Z,2.00
2019-02-09T11:29:25.135Z,1.70
2019-02-09T11:31:53.961Z,2.00
2019-02-09T11:34:22.833Z,2.40
2019-02-09T11:36:51.545Z,1.73
2019-02-09T11:39:20.434Z,2.13
2019-02-09T11:41:49.155Z,2.03
2019-02-09T11:44:17.845Z,2.17
2019-02-09T11:46:46.553Z,1.97
2019-02-09T11:49:15.265Z,1.90
2019-02-09T11:51:43.957Z,2.00
2019-02-09T11:54:13.190Z,1.67
2019-02-09T11:56:41.872Z,1.83
2019-02-09T11:59:10.543Z,1.80
2019-02-09T12:01:39.245Z,1.90
2019-02-09T12:04:07.924Z,1.90
2019-02-09T12:06:36.578Z,1.87
2019-02-09T12:09:07.491Z,2.17
2019-02-09T12:11:36.132Z,1.80
2019-02-09T12:14:05.550Z,1.77
2019-02-09T12:16:34.253Z,1.90
2019-02-09T12:19:02.960Z,1.70
2019-02-09T12:21:31.578Z,1.70
2019-02-09T12:24:00.154Z,1.67
2019-02-09T12:26:28.841Z,1.70
2019-02-09T12:28:57.564Z,1.77
2019-02-09T12:31:26.294Z,1.70
2019-02-09T12:33:55.092Z,2.10
2019-02-09T12:36:23.803Z,2.00
2019-02-09T12:38:52.513Z,1.90
2019-02-09T12:41:21.165Z,1.90
2019-02-09T12:43:49.926Z,1.60
2019-02-09T12:46:18.585Z,2.27
2019-02-09T12:48:47.242Z,2.00
2019-02-09T12:51:15.812Z,1.80
2019-02-09T12:53:44.514Z,2.10
2019-02-09T12:56:13.436Z,1.90
2019-02-09T12:58:42.093Z,1.70
2019-02-09T13:01:10.775Z,1.90
2019-02-09T13:03:39.456Z,1.77
2019-02-09T13:06:08.111Z,1.90
2019-02-09T13:08:36.711Z,1.60
2019-02-09T13:11:05.429Z,1.80
2019-02-09T13:13:34.080Z,1.70
2019-02-09T13:16:02.804Z,1.80
2019-02-09T13:18:31.529Z,1.27
2019-02-09T13:21:00.262Z,1.67
2019-02-09T13:23:28.958Z,1.30
2019-02-09T13:25:58.146Z,1.70
2019-02-09T13:28:27.152Z,1.73
2019-02-09T13:30:55.854Z,1.70
2019-02-09T13:33:24.656Z,1.90
2019-02-09T13:35:54.411Z,1.60
2019-02-09T13:38:23.145Z,1.87
2019-02-09T13:40:51.806Z,1.70
2019-02-09T13:43:20.533Z,1.67
2019-02-09T13:45:50.221Z,1.53
2019-02-09T13:48:18.964Z,1.63
2019-02-09T13:50:47.646Z,1.80
2019-02-09T13:53:16.330Z,2.10
2019-02-09T13:55:44.976Z,1.60
2019-02-09T13:58:13.641Z,1.80
2019-02-09T14:00:42.352Z,2.17
2019-02-09T14:03:11.116Z,2.00
2019-02-09T14:05:39.841Z,1.67
2019-02-09T14:08:08.670Z,1.90
2019-02-09T14:10:37.443Z,1.70
2019-02-09T14:13:13.870Z,2.00
2019-02-09T14:15:36.649Z,1.67
2019-02-09T14:18:06.402Z,2.13
2019-02-09T14:20:35.016Z,2.20
2019-02-09T14:23:03.721Z,1.93
2019-02-09T14:25:32.293Z,1.60
2019-02-09T14:28:02.409Z,1.73
2019-02-09T14:30:31.827Z,1.53
2019-02-09T14:33:01.366Z,1.50
2019-02-09T14:35:30.129Z,1.60
2019-02-09T14:37:58.824Z,1.50
2019-02-09T14:40:28.577Z,1.30
2019-02-09T14:42:57.251Z,1.30
2019-02-09T14:45:27.740Z,1.20
2019-02-09T14:47:56.430Z,1.57
2019-02-09T14:50:25.099Z,1.47
2019-02-09T14:52:53.882Z,1.30
2019-02-09T14:55:29.984Z,1.27
2019-02-09T14:57:58.815Z,1.20
2019-02-09T15:00:28.630Z,1.30
2019-02-09T15:02:57.388Z,1.53
2019-02-09T15:05:26.143Z,1.30
2019-02-09T15:07:54.871Z,1.40
2019-02-09T15:10:23.572Z,1.50
2019-02-09T15:12:52.244Z,1.57
2019-02-09T15:15:25.399Z,1.13
2019-02-09T15:17:54.090Z,1.07
2019-02-09T15:20:24.149Z,1.17
2019-02-09T15:22:52.948Z,1.10
2019-02-09T15:25:21.700Z,1.30
2019-02-09T15:27:50.385Z,1.20
2019-02-09T15:30:21.693Z,1.20
2019-02-09T15:32:50.348Z,1.50
2019-02-09T15:35:19.179Z,1.33
2019-02-09T15:37:47.756Z,1.50
2019-02-09T15:40:17.195Z,1.40
2019-02-09T15:42:45.847Z,1.20
2019-02-09T15:45:15.040Z,1.70
2019-02-09T15:47:43.708Z,1.60
2019-02-09T15:50:12.630Z,1.30
2019-02-09T15:52:41.311Z,1.20
2019-02-09T15:55:10.921Z,1.50
2019-02-09T15:57:39.668Z,1.50
2019-02-09T16:00:10.892Z,1.40
2019-02-09T16:02:42.791Z,1.20
2019-02-09T16:05:11.530Z,1.33
2019-02-09T16:07:40.674Z,1.50
2019-02-09T16:10:09.704Z,1.47
2019-02-09T16:12:38.357Z,1.37
2019-02-09T16:15:07.689Z,1.30
2019-02-09T16:17:36.431Z,1.20
2019-02-09T16:20:05.384Z,1.70
2019-02-09T16:22:34.100Z,1.40
2019-02-09T16:25:02.774Z,1.70
2019-02-09T16:27:31.742Z,1.80
2019-02-09T16:30:00.448Z,1.93
2019-02-09T16:32:29.191Z,1.70
2019-02-09T16:34:57.963Z,2.00
2019-02-09T16:37:26.753Z,1.70
2019-02-09T16:39:55.598Z,2.40
2019-02-09T16:42:24.526Z,2.43
2019-02-09T16:44:53.365Z,2.47
2019-02-09T16:47:22.158Z,2.83
2019-02-09T16:49:50.935Z,2.93
2019-02-09T16:52:19.656Z,2.83
2019-02-09T16:54:48.494Z,2.97
2019-02-09T16:57:17.183Z,2.97
2019-02-09T16:59:45.850Z,2.90
2019-02-09T17:02:14.660Z,2.77
2019-02-09T17:04:43.494Z,2.93
2019-02-09T17:07:12.199Z,3.17
2019-02-09T17:09:40.906Z,2.90
2019-02-09T17:12:09.609Z,2.80
2019-02-09T17:14:38.348Z,2.93
2019-02-09T17:17:07.082Z,3.10
2019-02-09T17:19:35.765Z,3.03
2019-02-09T17:22:04.618Z,3.33
2019-02-09T17:24:33.299Z,3.20
2019-02-09T17:27:02.118Z,3.53
2019-02-09T17:29:30.797Z,3.37
2019-02-09T17:31:59.531Z,3.10
2019-02-09T17:34:28.253Z,3.23
2019-02-09T17:36:56.926Z,3.27
2019-02-09T17:39:25.593Z,3.37
2019-02-09T17:41:54.337Z,3.20
2019-02-09T17:44:23.154Z,3.40
2019-02-09T17:46:51.896Z,3.07
2019-02-09T17:49:20.600Z,3.27
2019-02-09T17:51:49.388Z,3.47
2019-02-09T17:54:18.977Z,3.63
2019-02-09T17:56:47.754Z,3.77
2019-02-09T17:59:16.510Z,3.83
2019-02-09T18:01:45.320Z,3.60
2019-02-09T18:04:14.021Z,3.87
2019-02-09T18:06:42.890Z,3.97
2019-02-09T18:09:11.745Z,3.83
2019-02-09T18:11:40.573Z,4.20
2019-02-09T18:14:09.798Z,3.47
2019-02-09T18:16:38.520Z,3.67
2019-02-09T18:19:07.300Z,3.73
2019-02-09T18:21:36.066Z,3.90
2019-02-09T18:24:05.039Z,3.57
2019-02-09T18:26:33.769Z,3.60
2019-02-09T18:29:02.617Z,3.83
2019-02-09T18:31:31.364Z,3.50
2019-02-09T18:34:00.163Z,3.07
2019-02-09T18:36:28.972Z,3.03
2019-02-09T18:38:57.673Z,3.30
2019-02-09T18:41:26.418Z,3.33
2019-02-09T18:43:55.154Z,3.60
2019-02-09T18:46:23.831Z,3.40
2019-02-09T18:48:52.498Z,3.03
2019-02-09T18:51:21.199Z,3.23
2019-02-09T18:53:49.861Z,3.53
2019-02-09T18:56:18.549Z,2.93
2019-02-09T18:58:47.282Z,2.77
2019-02-09T19:01:16.062Z,3.10
2019-02-09T19:03:44.815Z,3.80
2019-02-09T19:06:13.512Z,3.53
2019-02-09T19:08:42.218Z,3.53
2019-02-09T19:11:10.906Z,4.03
2019-02-09T19:13:39.687Z,3.30
2019-02-09T19:16:08.422Z,3.90
2019-02-09T19:18:37.374Z,4.00
2019-02-09T19:21:08.159Z,3.43
2019-02-09T19:23:36.963Z,4.00
2019-02-09T19:26:05.672Z,3.63
2019-02-09T19:28:34.346Z,4.23
2019-02-09T19:31:03.079Z,2.87
2019-02-09T19:33:31.761Z,3.53
2019-02-09T19:36:00.463Z,3.20
2019-02-09T19:38:29.168Z,3.40
2019-02-09T19:40:57.848Z,3.43
2019-02-09T19:43:26.579Z,3.47
2019-02-09T19:45:55.295Z,3.47
2019-02-09T19:48:24.023Z,3.77
2019-02-09T19:50:52.755Z,3.80
2019-02-09T19:53:21.444Z,3.73
2019-02-09T19:55:50.239Z,4.40
2019-02-09T19:58:18.973Z,4.13
2019-02-09T20:00:47.637Z,4.40
2019-02-09T20:03:16.310Z,4.77
2019-02-09T20:05:44.966Z,4.10
2019-02-09T20:08:13.738Z,4.43
2019-02-09T20:10:42.452Z,4.37
2019-02-09T20:13:11.193Z,4.47
2019-02-09T20:15:39.960Z,4.10
2019-02-09T20:18:08.663Z,4.40
2019-02-09T20:20:37.395Z,4.30
2019-02-09T20:23:06.382Z,4.43
2019-02-09T20:25:35.070Z,4.63
2019-02-09T20:28:04.024Z,5.07
2019-02-09T20:30:33.369Z,4.60
2019-02-09T20:33:02.113Z,4.63
2019-02-09T20:35:30.845Z,4.70
2019-02-09T20:37:59.751Z,4.37
2019-02-09T20:40:32.890Z,4.10
2019-02-09T20:43:03.863Z,4.50
2019-02-09T20:45:31.960Z,4.37
2019-02-09T20:48:00.698Z,4.27
2019-02-09T20:50:29.381Z,3.63
2019-02-09T20:52:58.063Z,4.80
2019-02-09T20:55:26.992Z,3.53
2019-02-09T20:57:55.743Z,3.63
2019-02-09T21:00:24.714Z,3.60
2019-02-09T21:02:53.460Z,3.30
2019-02-09T21:06:21.678Z,4.27
2019-02-09T21:08:50.665Z,3.83
2019-02-09T21:14:44.547Z,3.50
2019-02-09T21:17:13.464Z,3.57
2019-02-09T21:19:42.749Z,3.30
2019-02-09T21:22:11.785Z,3.40
2019-02-09T21:24:41.776Z,3.50
2019-02-09T21:27:10.785Z,3.50
2019-02-09T21:29:39.736Z,3.13
2019-02-09T21:32:08.591Z,3.37
2019-02-09T21:34:37.701Z,3.50
2019-02-09T21:37:06.825Z,3.33
2019-02-09T21:39:35.816Z,3.27
2019-02-09T21:42:05.515Z,3.03
2019-02-09T21:44:34.459Z,3.50
2019-02-09T21:47:04.713Z,3.33
2019-02-09T21:49:33.970Z,3.07
2019-02-09T21:52:02.986Z,2.70
2019-02-09T21:54:32.067Z,2.73
2019-02-09T21:57:01.063Z,3.00
2019-02-09T21:59:30.269Z,3.37
2019-02-09T22:01:59.325Z,3.20
2019-02-09T22:04:28.430Z,3.37
2019-02-09T22:06:57.754Z,3.13
2019-02-09T22:09:26.975Z,3.03
2019-02-09T22:11:56.201Z,2.50
2019-02-09T22:14:25.390Z,2.97
2019-02-09T22:16:54.583Z,2.90
2019-02-09T22:19:23.646Z,3.03
2019-02-09T22:21:52.978Z,2.57
2019-02-09T22:24:22.121Z,2.90
2019-02-09T22:26:51.114Z,2.50
2019-02-09T22:29:20.058Z,3.30
2019-02-09T22:31:49.850Z,2.90
2019-02-09T22:34:18.765Z,2.97
2019-02-09T22:36:47.802Z,2.67
2019-02-09T22:39:16.883Z,2.70
2019-02-09T22:41:49.178Z,2.33
2019-02-09T22:44:16.610Z,3.23
2019-02-09T22:46:45.728Z,2.47
2019-02-09T22:49:14.746Z,2.70
2019-02-09T22:51:43.676Z,3.30
2019-02-09T22:54:12.792Z,3.40
2019-02-09T22:56:41.893Z,2.93
2019-02-09T22:59:10.759Z,2.40
2019-02-09T23:01:44.177Z,3.40
2019-02-09T23:04:25.386Z,3.27
2019-02-09T23:06:56.918Z,3.37
2019-02-09T23:09:26.755Z,3.27
2019-02-09T23:11:55.734Z,2.83
2019-02-09T23:14:24.803Z,2.80
2019-02-09T23:16:53.930Z,3.93
2019-02-09T23:19:23.128Z,2.67
2019-02-09T23:21:52.245Z,2.40
2019-02-09T23:24:21.292Z,2.73
2019-02-09T23:26:50.466Z,2.43
2019-02-09T23:29:19.592Z,2.73
2019-02-09T23:31:48.836Z,2.73
2019-02-09T23:34:18.001Z,2.30
2019-02-09T23:36:47.191Z,2.33
2019-02-09T23:39:16.111Z,2.33
2019-02-09T23:41:45.111Z,2.87
2019-02-09T23:44:13.945Z,2.73
2019-02-09T23:46:43.061Z,2.67
2019-02-09T23:49:11.971Z,2.73
2019-02-09T23:51:41.161Z,2.50
2019-02-09T23:54:10.047Z,2.63
2019-02-09T23:56:39.114Z,2.90
2019-02-09T23:59:08.175Z,2.43
